Terminal Aerodrome Forecast
Issued by NWS

Home | Current Version | Previous Version | Text Only | Print | Product List | Glossary On
Versions: 1 2 3 4 5 6 7 8 9 10 11 12 13 14 15 16 17 18 19 20 21 22
000
FTPA31 PHFO 241120
TAFHTO
TAF
PHTO 241120Z 2412/2512 25006KT 5SM -SHRA BKN015 OVC025
      TEMPO 2412/2416 2SM RA BR
     FM242000 09011KT P6SM VCSH SCT025 SCT045
     FM250200 VRB06KT P6SM FEW020=

USA.gov is the U.S. government's official web portal to all federal, state and local government web resources and services.